Ciudad Victoria, Mexico

6:30 PM CDT on May 04, 2015 (GMT -0500)
Ciudad Victoria | | Change Station
CLOSE
Current Station
Airport
Location: Ciudad Victoria,
Elevation: 781 ft
Nearby Weather Stations

Elev 781 ft 23.70 °N, 98.96 °W | Updated 1 hour ago

Partly Cloudy
Partly Cloudy
86 °F
Feels Like 87 °F
N
14
Wind Variable Wind from SSE

Today
High -- | Low -- °F
--% Chance of Precip.
Yesterday
High -- | Low -- °F
Precip. -- in
6:59 AM 8:05 PM
Full, 99% visible
Pressure 29.87 in
Visibility 8.0 miles
Clouds Few 1500 ft
Heat Index 87 °F
Dew Point 63 °F
Humidity 45%
Rainfall 0.00 in
Snow Depth Not available.
UV 6 out of 12
Pollen Not available.
Air Quality Not available.
Flu Activity Not available.
METAR MMCV 042143Z 15012KT 8SM FEW015 30/17 A2987 RMK 8/100 HZY TCU ALQDS ISOL AC

More Conditions Fewer Conditions

Pressure 29.87 in
Visibility 8.0 miles
Clouds Few 1500 ft
Heat Index 87 °F
Dew Point 63 °F
Humidity 45%
Rainfall 0.00 in
Snow Depth Not available.
UV 6 out of 12
Pollen Not available.
Air Quality Not available.
Flu Activity Not available.
METAR MMCV 042143Z 15012KT 8SM FEW015 30/17 A2987 RMK 8/100 HZY TCU ALQDS ISOL AC

More Conditions Fewer Conditions

10-Day Weather Forecast

Almanac

Astronomy

May. 04, 2015 Rise Set
Actual Time
Civil Twilight
Nautical Twilight
Astronomical Twilight
Moon
Length of Visible Light
Length of Day
Tomorrow will be .
, % of the Moon is Illuminated

Today's Extremes

Country Highs Country Lows

Community

WunderPhotos

Upload Photos

1,818,734 photos uploaded!

WunderBlogs® & News

Nearby

Air Quality

  Air Quality AQ Index Pollutant
Not available.

Snow Depth

Station Depth Elevation

Earthquake Activity

City Distance Mag. Time & Date
Minimum magnitude displayed is 2.5.

Coastal Water Temperatures

Place Temperature

Stations

Nearby Weather Stations

Station Location Temp. Windchill Dew Point Humidity Wind Precip. Elev Updated Type